Time;durP1;ratioP1;P1;durP2;ratioP2;P2;SDS_P1;SDS_P2;PMS_P1;PMS_P2;Temp;Humidity;BMP_temperature;BMP_pressure;BME280_temperature;BME280_humidity;BME280_pressure;Samples;Min_cycle;Max_cycle;Signal;HPM_P1;HPM_P2
2023/08/20 00:00:39;;;;;;;12.48;5.80;;;;;;;;;;5009215;28;20490;-74
2023/08/20 00:03:10;;;;;;;9.60;6.30;;;;;;;;;;5013611;28;20088;-74
2023/08/20 00:05:36;;;;;;;9.18;5.88;;;;;;;;;;5011211;28;20018;-74
2023/08/20 00:08:02;;;;;;;10.57;6.20;;;;;;;;;;5010546;28;20025;-74
2023/08/20 00:10:27;;;;;;;23.77;6.65;;;;;;;;;;5011230;28;20014;-74
2023/08/20 00:12:52;;;;;;;12.23;7.07;;;;;;;;;;5013521;28;20026;-74
2023/08/20 00:15:19;;;;;;;12.90;6.70;;;;;;;;;;5010721;28;20277;-74
2023/08/20 00:17:45;;;;;;;14.57;5.70;;;;;;;;;;5012409;28;20029;-74
2023/08/20 00:20:12;;;;;;;9.32;5.78;;;;;;;;;;5010172;28;20014;-74
2023/08/20 00:22:37;;;;;;;14.77;5.95;;;;;;;;;;5008851;28;20025;-74
2023/08/20 00:25:05;;;;;;;12.45;6.13;;;;;;;;;;5011743;28;20022;-74
2023/08/20 00:27:30;;;;;;;14.23;7.10;;;;;;;;;;5009931;28;20018;-74
2023/08/20 00:29:55;;;;;;;10.88;5.90;;;;;;;;;;5012767;28;20198;-74
2023/08/20 00:32:20;;;;;;;9.43;5.68;;;;;;;;;;5011672;28;20022;-74
2023/08/20 00:34:45;;;;;;;9.83;6.60;;;;;;;;;;5011180;28;20352;-74
2023/08/20 00:37:12;;;;;;;13.50;6.70;;;;;;;;;;5007541;28;20307;-74
2023/08/20 00:39:37;;;;;;;18.33;6.88;;;;;;;;;;5012110;28;20284;-74
2023/08/20 00:42:02;;;;;;;13.77;6.13;;;;;;;;;;5012923;28;20022;-74
2023/08/20 00:44:27;;;;;;;11.15;6.57;;;;;;;;;;5007549;28;20269;-74
2023/08/20 00:46:53;;;;;;;14.15;6.28;;;;;;;;;;5005552;28;20210;-74
2023/08/20 00:49:18;;;;;;;13.80;6.03;;;;;;;;;;5011068;28;20036;-74
2023/08/20 00:51:43;;;;;;;14.53;6.03;;;;;;;;;;5010039;28;20281;-74
2023/08/20 00:54:09;;;;;;;11.68;5.47;;;;;;;;;;5011872;28;20298;-74
2023/08/20 00:56:34;;;;;;;12.85;6.72;;;;;;;;;;5003957;28;20065;-74
2023/08/20 00:59:00;;;;;;;11.35;5.60;;;;;;;;;;5004391;28;20030;-74
2023/08/20 01:01:25;;;;;;;12.55;6.47;;;;;;;;;;5006322;28;20069;-74
2023/08/20 01:03:52;;;;;;;14.50;6.00;;;;;;;;;;5006844;28;20025;-74
2023/08/20 01:06:21;;;;;;;10.43;6.28;;;;;;;;;;5006611;28;20283;-74
2023/08/20 01:08:47;;;;;;;13.10;6.03;;;;;;;;;;5004351;28;20018;-74
2023/08/20 01:11:17;;;;;;;10.02;5.10;;;;;;;;;;5008159;28;20072;-74
2023/08/20 01:13:42;;;;;;;;;;;;;;;;;;5007864;28;20025;-74
2023/08/20 01:16:08;;;;;;;10.82;5.60;;;;;;;;;;5010050;28;19909;-75
2023/08/20 01:18:33;;;;;;;14.43;6.23;;;;;;;;;;5012063;28;20538;-74
2023/08/20 01:21:02;;;;;;;10.18;5.53;;;;;;;;;;4999687;28;20272;-74
2023/08/20 01:23:48;;;;;;;14.75;6.40;;;;;;;;;;5010783;28;20082;-74
2023/08/20 01:26:40;;;;;;;13.55;6.07;;;;;;;;;;5002546;28;20080;-74
2023/08/20 01:29:06;;;;;;;11.85;6.28;;;;;;;;;;5004270;28;20419;-74
2023/08/20 01:31:32;;;;;;;10.35;5.70;;;;;;;;;;5007459;28;20019;-74
2023/08/20 01:33:57;;;;;;;10.70;6.88;;;;;;;;;;5005921;28;20442;-74
2023/08/20 01:36:22;;;;;;;12.63;5.55;;;;;;;;;;5004509;28;20036;-74
2023/08/20 01:38:48;;;;;;;13.10;6.20;;;;;;;;;;5009178;28;20026;-74
2023/08/20 01:41:13;;;;;;;13.63;6.57;;;;;;;;;;5007814;28;20772;-74
2023/08/20 01:43:38;;;;;;;9.70;6.33;;;;;;;;;;5011946;28;20025;-74
2023/08/20 01:46:03;;;;;;;13.73;7.43;;;;;;;;;;5007060;28;20033;-74
2023/08/20 01:48:28;;;;;;;17.03;6.57;;;;;;;;;;5008827;28;20036;-74
2023/08/20 01:50:53;;;;;;;18.33;6.70;;;;;;;;;;5010055;28;20738;-74
2023/08/20 01:53:19;;;;;;;12.53;6.13;;;;;;;;;;5010723;28;20097;-74
2023/08/20 01:55:44;;;;;;;14.73;6.05;;;;;;;;;;5006985;28;20295;-74
2023/08/20 01:58:09;;;;;;;12.97;6.00;;;;;;;;;;5009719;28;20029;-74
2023/08/20 02:00:35;;;;;;;11.93;6.47;;;;;;;;;;5008734;28;20129;-74
2023/08/20 02:03:00;;;;;;;12.03;7.10;;;;;;;;;;5005582;28;20711;-74
2023/08/20 02:05:25;;;;;;;12.30;5.57;;;;;;;;;;5011216;28;20014;-74
2023/08/20 02:07:50;;;;;;;18.20;6.53;;;;;;;;;;5010825;28;20494;-74
2023/08/20 02:10:15;;;;;;;9.70;5.97;;;;;;;;;;5010432;28;20014;-74
2023/08/20 02:12:41;;;;;;;15.93;6.43;;;;;;;;;;5007696;28;20326;-74
2023/08/20 02:15:06;;;;;;;12.55;6.07;;;;;;;;;;5008820;28;20042;-74
2023/08/20 02:17:32;;;;;;;13.65;6.53;;;;;;;;;;5009577;28;20025;-74
2023/08/20 02:19:57;;;;;;;11.00;5.60;;;;;;;;;;5010712;28;20029;-74
2023/08/20 02:22:22;;;;;;;11.53;6.13;;;;;;;;;;5006843;28;20289;-74
2023/08/20 02:24:47;;;;;;;7.88;5.32;;;;;;;;;;5008672;28;20108;-74
2023/08/20 02:27:12;;;;;;;10.23;5.93;;;;;;;;;;5008511;28;20041;-74
2023/08/20 02:29:38;;;;;;;12.17;6.03;;;;;;;;;;5010187;28;20478;-74
2023/08/20 02:32:03;;;;;;;9.10;5.17;;;;;;;;;;5010214;28;20032;-74
2023/08/20 02:34:28;;;;;;;10.67;5.83;;;;;;;;;;5011250;28;20526;-74
2023/08/20 02:36:53;;;;;;;16.00;7.13;;;;;;;;;;5011263;28;20328;-74
2023/08/20 02:39:20;;;;;;;12.93;6.63;;;;;;;;;;5000910;28;20046;-74
2023/08/20 02:41:45;;;;;;;10.18;6.40;;;;;;;;;;5008509;28;20293;-74
2023/08/20 02:44:10;;;;;;;14.13;7.00;;;;;;;;;;5001659;28;20026;-74
2023/08/20 02:46:35;;;;;;;8.00;5.80;;;;;;;;;;5010150;28;20021;-74
2023/08/20 02:49:01;;;;;;;15.05;6.00;;;;;;;;;;5010353;28;20265;-74
2023/08/20 02:51:26;;;;;;;11.90;6.90;;;;;;;;;;5010333;28;20022;-74
2023/08/20 02:53:51;;;;;;;11.50;6.87;;;;;;;;;;5009892;28;20257;-74
2023/08/20 02:56:16;;;;;;;13.47;6.13;;;;;;;;;;5005800;28;20859;-74
2023/08/20 02:58:41;;;;;;;13.37;7.00;;;;;;;;;;5010208;28;20614;-74
2023/08/20 03:01:07;;;;;;;15.47;5.80;;;;;;;;;;5008938;28;20014;-74
2023/08/20 03:03:32;;;;;;;14.60;7.03;;;;;;;;;;5009282;28;20459;-74
2023/08/20 03:05:57;;;;;;;14.03;6.37;;;;;;;;;;5007986;28;20283;-75
2023/08/20 03:08:22;;;;;;;12.33;7.10;;;;;;;;;;5009505;28;20122;-75
2023/08/20 03:10:47;;;;;;;17.30;8.00;;;;;;;;;;5002643;28;20026;-74
2023/08/20 03:13:12;;;;;;;16.17;7.18;;;;;;;;;;5008492;28;20437;-74
2023/08/20 03:15:38;;;;;;;16.33;6.67;;;;;;;;;;5009336;28;20030;-74
2023/08/20 03:18:03;;;;;;;14.88;7.40;;;;;;;;;;5009858;28;20080;-74
2023/08/20 03:20:30;;;;;;;13.88;6.78;;;;;;;;;;5008533;28;20025;-74
2023/08/20 03:22:56;;;;;;;17.80;7.43;;;;;;;;;;5008062;28;20029;-74
2023/08/20 03:25:21;;;;;;;13.10;6.95;;;;;;;;;;5006147;28;20022;-74
2023/08/20 03:27:46;;;;;;;19.27;7.57;;;;;;;;;;5006904;28;20013;-74
2023/08/20 03:30:12;;;;;;;13.47;7.10;;;;;;;;;;5011412;28;20352;-74
2023/08/20 03:32:37;;;;;;;17.65;8.65;;;;;;;;;;5014246;28;20253;-74
2023/08/20 03:35:02;;;;;;;11.30;7.27;;;;;;;;;;5013531;28;20029;-74
2023/08/20 03:37:28;;;;;;;12.10;7.30;;;;;;;;;;5012823;28;20101;-74
2023/08/20 03:39:53;;;;;;;13.98;7.68;;;;;;;;;;5011750;28;20025;-74
2023/08/20 03:42:18;;;;;;;11.73;6.87;;;;;;;;;;5013456;28;20088;-74
2023/08/20 03:44:43;;;;;;;11.20;6.07;;;;;;;;;;5014152;28;20249;-74
2023/08/20 03:47:08;;;;;;;12.83;5.97;;;;;;;;;;5014139;28;20272;-74
2023/08/20 03:49:34;;;;;;;12.77;6.67;;;;;;;;;;5014412;28;20018;-74
2023/08/20 03:52:01;;;;;;;13.18;6.07;;;;;;;;;;5010745;28;20018;-74
2023/08/20 03:54:26;;;;;;;12.23;6.78;;;;;;;;;;5006559;28;20032;-74
2023/08/20 03:56:52;;;;;;;19.73;7.63;;;;;;;;;;5010735;28;20021;-74
2023/08/20 03:59:17;;;;;;;13.27;6.63;;;;;;;;;;5013839;28;20026;-74
2023/08/20 04:01:42;;;;;;;17.63;7.43;;;;;;;;;;5009366;28;20375;-74
2023/08/20 04:04:07;;;;;;;15.73;7.20;;;;;;;;;;5011784;28;20037;-74
2023/08/20 04:06:32;;;;;;;10.05;7.05;;;;;;;;;;5012836;28;20076;-74
2023/08/20 04:08:57;;;;;;;16.47;7.10;;;;;;;;;;5012145;28;20017;-74
2023/08/20 04:11:23;;;;;;;11.83;7.27;;;;;;;;;;5013815;28;20480;-74
2023/08/20 04:13:48;;;;;;;19.27;6.57;;;;;;;;;;5011380;28;20257;-74
2023/08/20 04:16:13;;;;;;;14.83;6.90;;;;;;;;;;5013744;28;20018;-74
2023/08/20 04:18:38;;;;;;;13.32;7.30;;;;;;;;;;5011322;28;20276;-74
2023/08/20 04:21:03;;;;;;;25.15;7.57;;;;;;;;;;5012361;28;20104;-74
2023/08/20 04:23:29;;;;;;;11.77;7.27;;;;;;;;;;5012497;28;20096;-74
2023/08/20 04:25:54;;;;;;;12.83;6.33;;;;;;;;;;5011349;28;20014;-74
2023/08/20 04:28:19;;;;;;;19.35;6.95;;;;;;;;;;5013650;28;20740;-74
2023/08/20 04:30:44;;;;;;;16.20;7.13;;;;;;;;;;5012158;28;20020;-75
2023/08/20 04:33:10;;;;;;;17.50;7.13;;;;;;;;;;5010019;28;20026;-74
2023/08/20 04:35:35;;;;;;;12.88;7.32;;;;;;;;;;5006130;28;20281;-74
2023/08/20 04:38:00;;;;;;;16.38;7.70;;;;;;;;;;5011674;28;20010;-74
2023/08/20 04:40:25;;;;;;;12.20;6.67;;;;;;;;;;5011445;28;20026;-74
2023/08/20 04:42:50;;;;;;;17.17;7.40;;;;;;;;;;5012331;28;20489;-74
2023/08/20 04:45:18;;;;;;;14.77;7.13;;;;;;;;;;5010220;28;20014;-74
2023/08/20 04:47:43;;;;;;;13.30;7.60;;;;;;;;;;5006565;28;20109;-74
2023/08/20 04:50:08;;;;;;;14.60;7.30;;;;;;;;;;5006753;28;20105;-74
2023/08/20 04:52:33;;;;;;;16.83;7.20;;;;;;;;;;5002538;28;20453;-74
2023/08/20 04:54:59;;;;;;;16.35;7.68;;;;;;;;;;5011192;28;20033;-74
2023/08/20 04:57:24;;;;;;;13.40;7.65;;;;;;;;;;5009562;28;20031;-74
2023/08/20 04:59:49;;;;;;;13.20;6.90;;;;;;;;;;5010855;28;20030;-74
2023/08/20 05:02:14;;;;;;;15.90;8.10;;;;;;;;;;5012113;28;20029;-74
2023/08/20 05:04:40;;;;;;;14.75;7.93;;;;;;;;;;5013109;28;20723;-74
2023/08/20 05:07:05;;;;;;;13.43;7.65;;;;;;;;;;5012059;28;20482;-74
2023/08/20 05:09:30;;;;;;;15.50;7.93;;;;;;;;;;5009877;28;20160;-75
2023/08/20 05:11:56;;;;;;;11.18;7.50;;;;;;;;;;5012332;28;20060;-75
2023/08/20 05:14:21;;;;;;;14.90;7.72;;;;;;;;;;5010073;28;20025;-74
2023/08/20 05:16:46;;;;;;;13.30;7.53;;;;;;;;;;5010027;28;20561;-74
2023/08/20 05:19:11;;;;;;;9.97;7.23;;;;;;;;;;5007566;28;20037;-74
2023/08/20 05:21:36;;;;;;;14.50;8.07;;;;;;;;;;5010338;28;20637;-74
2023/08/20 05:24:02;;;;;;;12.70;7.40;;;;;;;;;;5011476;28;20281;-74
2023/08/20 05:26:27;;;;;;;12.43;8.13;;;;;;;;;;5006982;28;20044;-74
2023/08/20 05:28:52;;;;;;;15.70;8.13;;;;;;;;;;5011929;28;20046;-74
2023/08/20 05:31:17;;;;;;;12.93;7.70;;;;;;;;;;5012401;28;20463;-74
2023/08/20 05:33:42;;;;;;;15.13;8.73;;;;;;;;;;5010781;28;20018;-74
2023/08/20 05:36:07;;;;;;;15.70;7.17;;;;;;;;;;5011804;28;20430;-74
2023/08/20 05:38:33;;;;;;;15.60;7.73;;;;;;;;;;5009103;28;20030;-74
2023/08/20 05:40:58;;;;;;;14.57;7.87;;;;;;;;;;5005258;28;20085;-74
2023/08/20 05:43:23;;;;;;;13.63;7.63;;;;;;;;;;5012136;28;20068;-74
2023/08/20 05:45:48;;;;;;;13.07;8.13;;;;;;;;;;5005383;28;20571;-74
2023/08/20 05:48:13;;;;;;;15.33;8.27;;;;;;;;;;5004500;28;20056;-74
2023/08/20 05:50:38;;;;;;;14.47;7.13;;;;;;;;;;4999767;28;20020;-74
2023/08/20 05:53:04;;;;;;;12.33;8.10;;;;;;;;;;4994165;28;21629;-74
2023/08/20 05:55:29;;;;;;;13.73;6.97;;;;;;;;;;5001278;28;20026;-74
2023/08/20 05:57:54;;;;;;;12.77;7.83;;;;;;;;;;5006275;28;20664;-74
2023/08/20 06:00:19;;;;;;;11.03;7.13;;;;;;;;;;5005830;28;20844;-74
2023/08/20 06:02:44;;;;;;;15.57;7.40;;;;;;;;;;4998812;28;20289;-74
2023/08/20 06:05:09;;;;;;;14.47;7.07;;;;;;;;;;5008419;28;20432;-74
2023/08/20 06:07:35;;;;;;;18.70;8.00;;;;;;;;;;5002945;28;20319;-74
2023/08/20 06:10:00;;;;;;;17.65;8.32;;;;;;;;;;4991397;28;21072;-74
2023/08/20 06:12:25;;;;;;;17.63;8.17;;;;;;;;;;4999070;28;20053;-74
2023/08/20 06:14:50;;;;;;;22.03;7.77;;;;;;;;;;5002974;28;20483;-74
2023/08/20 06:17:15;;;;;;;17.33;8.53;;;;;;;;;;5000649;28;20108;-74
2023/08/20 06:19:41;;;;;;;12.85;7.63;;;;;;;;;;4985989;28;20438;-74
2023/08/20 06:22:06;;;;;;;11.83;7.77;;;;;;;;;;4996850;28;20029;-74
2023/08/20 06:24:31;;;;;;;14.70;8.25;;;;;;;;;;4996537;28;20336;-74
2023/08/20 06:26:56;;;;;;;13.43;7.80;;;;;;;;;;5000799;28;20028;-74
2023/08/20 06:29:21;;;;;;;12.40;6.97;;;;;;;;;;5003513;28;20030;-74
2023/08/20 06:31:47;;;;;;;15.23;7.43;;;;;;;;;;4999416;28;20029;-74
2023/08/20 06:34:12;;;;;;;12.88;8.38;;;;;;;;;;4999287;28;20034;-75
2023/08/20 06:36:37;;;;;;;14.27;7.97;;;;;;;;;;4991414;28;20076;-75
2023/08/20 06:39:03;;;;;;;13.17;8.83;;;;;;;;;;5000758;28;20029;-75
2023/08/20 06:41:28;;;;;;;15.57;8.18;;;;;;;;;;5002330;28;20026;-75
2023/08/20 06:43:53;;;;;;;21.77;10.10;;;;;;;;;;5008298;28;20021;-75
2023/08/20 06:46:18;;;;;;;12.77;8.67;;;;;;;;;;5000967;28;20297;-74
2023/08/20 06:48:43;;;;;;;23.70;9.50;;;;;;;;;;4994345;28;20794;-75
2023/08/20 06:51:13;;;;;;;13.80;8.70;;;;;;;;;;5008032;28;20018;-75
2023/08/20 06:53:38;;;;;;;13.02;8.60;;;;;;;;;;5000104;28;20273;-75
2023/08/20 06:56:03;;;;;;;15.48;8.40;;;;;;;;;;4992681;28;20034;-75
2023/08/20 06:58:28;;;;;;;11.75;8.18;;;;;;;;;;5003843;28;20022;-75
2023/08/20 07:00:54;;;;;;;13.52;7.95;;;;;;;;;;4999241;28;20034;-75
2023/08/20 07:03:19;;;;;;;15.52;8.13;;;;;;;;;;4995053;28;20026;-74
2023/08/20 07:05:44;;;;;;;11.80;7.20;;;;;;;;;;4991719;28;20101;-74
2023/08/20 07:08:09;;;;;;;14.45;7.43;;;;;;;;;;4997600;28;20060;-75
2023/08/20 07:10:34;;;;;;;10.70;7.13;;;;;;;;;;4998945;28;20022;-75
2023/08/20 07:12:59;;;;;;;9.47;6.63;;;;;;;;;;4997583;28;20506;-75
2023/08/20 07:15:25;;;;;;;11.80;6.70;;;;;;;;;;5000117;28;20028;-75
2023/08/20 07:17:50;;;;;;;9.90;6.90;;;;;;;;;;4994774;28;20500;-75
2023/08/20 07:20:15;;;;;;;14.57;6.60;;;;;;;;;;4991900;28;20765;-75
2023/08/20 07:22:42;;;;;;;10.20;6.77;;;;;;;;;;4996731;28;20996;-75
2023/08/20 07:25:07;;;;;;;11.10;6.78;;;;;;;;;;5007671;28;20541;-75
2023/08/20 07:27:32;;;;;;;13.57;6.60;;;;;;;;;;5008492;28;20018;-75
2023/08/20 07:29:57;;;;;;;8.53;6.13;;;;;;;;;;5001148;28;20061;-75
2023/08/20 07:32:23;;;;;;;9.53;6.90;;;;;;;;;;5001245;28;20273;-75
2023/08/20 07:34:48;;;;;;;10.40;6.20;;;;;;;;;;4999807;28;20053;-75
2023/08/20 07:37:13;;;;;;;11.00;5.97;;;;;;;;;;5001367;28;20038;-75
2023/08/20 07:39:39;;;;;;;11.03;5.93;;;;;;;;;;5007176;28;20017;-74
2023/08/20 07:42:05;;;;;;;9.30;6.70;;;;;;;;;;5007551;28;20026;-75
2023/08/20 07:44:30;;;;;;;8.95;6.10;;;;;;;;;;5002436;28;20391;-74
2023/08/20 07:46:55;;;;;;;9.33;6.13;;;;;;;;;;5007769;28;20072;-75
2023/08/20 07:49:20;;;;;;;12.32;5.97;;;;;;;;;;5003224;28;20638;-75
2023/08/20 07:51:45;;;;;;;13.13;7.03;;;;;;;;;;4998245;28;20100;-75
2023/08/20 07:54:11;;;;;;;9.90;5.97;;;;;;;;;;5003243;28;20029;-75
2023/08/20 07:56:36;;;;;;;13.20;6.38;;;;;;;;;;5005925;28;20018;-75
2023/08/20 07:59:01;;;;;;;14.93;6.70;;;;;;;;;;5002656;28;20026;-74
2023/08/20 08:01:26;;;;;;;14.93;7.87;;;;;;;;;;4998094;28;20014;-75
2023/08/20 08:03:51;;;;;;;16.27;8.00;;;;;;;;;;4999204;28;20386;-75
2023/08/20 08:06:18;;;;;;;19.10;9.47;;;;;;;;;;4996825;28;20017;-75
2023/08/20 08:08:44;;;;;;;21.50;10.93;;;;;;;;;;5006296;28;20423;-75
2023/08/20 08:11:09;;;;;;;20.92;9.68;;;;;;;;;;5003257;28;20021;-75
2023/08/20 08:13:34;;;;;;;24.70;11.00;;;;;;;;;;4997149;28;20348;-75
2023/08/20 08:15:59;;;;;;;19.60;9.93;;;;;;;;;;5011853;28;20053;-75
2023/08/20 08:18:25;;;;;;;18.97;9.40;;;;;;;;;;5013246;28;20391;-75
2023/08/20 08:20:50;;;;;;;18.10;10.00;;;;;;;;;;5010009;28;20474;-75
2023/08/20 08:23:15;;;;;;;17.77;9.23;;;;;;;;;;5003181;28;20030;-75
2023/08/20 08:25:40;;;;;;;13.43;8.07;;;;;;;;;;5003212;28;20375;-75
2023/08/20 08:28:05;;;;;;;17.17;8.70;;;;;;;;;;5008287;28;20042;-75
2023/08/20 08:30:31;;;;;;;11.00;8.20;;;;;;;;;;5006479;28;20053;-75
2023/08/20 08:32:56;;;;;;;12.93;7.22;;;;;;;;;;5009784;28;20057;-75
2023/08/20 08:35:21;;;;;;;13.37;8.10;;;;;;;;;;5009587;28;20359;-74
2023/08/20 08:37:46;;;;;;;19.53;8.90;;;;;;;;;;5006227;28;20017;-74
2023/08/20 08:40:12;;;;;;;12.97;7.50;;;;;;;;;;5006267;28;20360;-74
2023/08/20 08:42:37;;;;;;;13.07;7.25;;;;;;;;;;5000197;28;20025;-74
2023/08/20 08:45:02;;;;;;;11.87;7.13;;;;;;;;;;5010212;28;20013;-74
2023/08/20 08:47:29;;;;;;;15.85;8.48;;;;;;;;;;5008225;28;20367;-74
2023/08/20 08:49:55;;;;;;;13.27;8.52;;;;;;;;;;5011498;28;20113;-74
2023/08/20 08:52:21;;;;;;;9.07;5.90;;;;;;;;;;5005263;28;20020;-74
2023/08/20 08:54:46;;;;;;;8.63;6.15;;;;;;;;;;4989833;28;20068;-74
2023/08/20 08:57:11;;;;;;;11.60;6.25;;;;;;;;;;5003579;28;20049;-74
2023/08/20 08:59:37;;;;;;;10.05;7.07;;;;;;;;;;5006803;28;20068;-74
2023/08/20 09:02:07;;;;;;;14.73;7.03;;;;;;;;;;5004945;28;20034;-74
2023/08/20 09:04:32;;;;;;;12.15;7.80;;;;;;;;;;5003731;28;20077;-74
2023/08/20 09:06:57;;;;;;;11.65;6.90;;;;;;;;;;5003046;28;20441;-74
2023/08/20 09:09:22;;;;;;;11.73;6.80;;;;;;;;;;4993544;28;20044;-74
2023/08/20 09:11:48;;;;;;;12.85;7.50;;;;;;;;;;4992641;28;20017;-74
2023/08/20 09:14:23;;;;;;;13.85;7.47;;;;;;;;;;5002686;28;20037;-74
2023/08/20 09:16:56;;;;;;;15.60;6.57;;;;;;;;;;5004557;28;20222;-74
2023/08/20 09:19:21;;;;;;;15.57;7.43;;;;;;;;;;5009028;28;20033;-74
2023/08/20 09:21:47;;;;;;;13.40;7.07;;;;;;;;;;5010641;28;20018;-74
2023/08/20 09:24:12;;;;;;;13.45;6.97;;;;;;;;;;5012237;28;20264;-74
2023/08/20 09:26:37;;;;;;;9.13;5.47;;;;;;;;;;5012168;28;20030;-74
2023/08/20 09:29:03;;;;;;;13.38;6.13;;;;;;;;;;5010778;28;20291;-74
2023/08/20 09:31:38;;;;;;;9.88;5.65;;;;;;;;;;5012288;28;20289;-74
2023/08/20 09:34:03;;;;;;;9.23;5.75;;;;;;;;;;5007170;28;20025;-74
2023/08/20 09:36:32;;;;;;;9.47;5.80;;;;;;;;;;5011694;28;20018;-74
2023/08/20 09:38:57;;;;;;;13.52;5.68;;;;;;;;;;5011212;28;20049;-74
2023/08/20 09:41:23;;;;;;;10.80;6.07;;;;;;;;;;5011992;28;20486;-74
2023/08/20 09:43:51;;;;;;;11.50;6.63;;;;;;;;;;5011930;28;20633;-74
2023/08/20 09:46:19;;;;;;;16.13;6.88;;;;;;;;;;5011758;28;20026;-74
2023/08/20 09:48:47;;;;;;;16.55;6.97;;;;;;;;;;5010647;28;20093;-74
2023/08/20 09:51:13;;;;;;;13.88;6.22;;;;;;;;;;5006889;28;20088;-74
2023/08/20 09:53:43;;;;;;;13.63;6.80;;;;;;;;;;4993637;28;20018;-74
2023/08/20 09:56:17;;;;;;;12.73;6.20;;;;;;;;;;5011793;28;20301;-74
2023/08/20 09:58:43;;;;;;;10.52;6.35;;;;;;;;;;5011576;28;20029;-74
2023/08/20 10:01:08;;;;;;;12.05;7.45;;;;;;;;;;5006036;28;20037;-74
2023/08/20 10:03:34;;;;;;;14.03;7.67;;;;;;;;;;5004171;28;20029;-74
2023/08/20 10:05:59;;;;;;;9.73;6.30;;;;;;;;;;5007661;28;20338;-74
2023/08/20 10:08:25;;;;;;;18.35;8.35;;;;;;;;;;5010839;28;20249;-74
2023/08/20 10:10:50;;;;;;;10.40;6.23;;;;;;;;;;5011303;28;20021;-74
2023/08/20 10:13:15;;;;;;;12.10;6.77;;;;;;;;;;5007187;28;20269;-74
2023/08/20 10:15:41;;;;;;;12.00;6.78;;;;;;;;;;5011136;28;20029;-74
2023/08/20 10:18:07;;;;;;;15.23;8.45;;;;;;;;;;5011399;28;20033;-74
2023/08/20 10:20:32;;;;;;;10.90;7.45;;;;;;;;;;5007517;28;20026;-74
2023/08/20 10:23:02;;;;;;;17.60;9.77;;;;;;;;;;5008386;28;20052;-73
2023/08/20 10:25:29;;;;;;;14.02;7.95;;;;;;;;;;5009675;28;20038;-73
2023/08/20 10:28:10;;;;;;;13.27;8.35;;;;;;;;;;5008433;28;20454;-73
2023/08/20 10:30:35;;;;;;;13.05;7.90;;;;;;;;;;5002527;28;20036;-74
2023/08/20 10:33:03;;;;;;;14.10;7.23;;;;;;;;;;5005124;28;20382;-74
2023/08/20 10:35:29;;;;;;;11.05;5.78;;;;;;;;;;5008848;28;20277;-73
2023/08/20 10:38:01;;;;;;;11.02;6.80;;;;;;;;;;5005829;28;20013;-73
2023/08/20 10:40:45;;;;;;;10.38;6.72;;;;;;;;;;4997035;28;20022;-73
2023/08/20 10:43:23;;;;;;;13.82;7.05;;;;;;;;;;5008700;28;20105;-74
2023/08/20 10:46:01;;;;;;;10.80;6.68;;;;;;;;;;5004011;28;20069;-74
2023/08/20 10:48:26;;;;;;;16.77;6.60;;;;;;;;;;5001396;28;20490;-74
2023/08/20 10:50:52;;;;;;;13.10;7.17;;;;;;;;;;5001334;28;20029;-74
2023/08/20 10:53:17;;;;;;;12.05;7.50;;;;;;;;;;5000369;28;20288;-74
2023/08/20 10:55:47;;;;;;;11.23;6.77;;;;;;;;;;5008316;28;20034;-74
2023/08/20 10:58:13;;;;;;;10.38;6.75;;;;;;;;;;5003367;28;20021;-74
2023/08/20 11:00:38;;;;;;;12.23;6.45;;;;;;;;;;5004178;28;20026;-74
2023/08/20 11:03:03;;;;;;;10.57;6.37;;;;;;;;;;5010135;28;20101;-74
2023/08/20 11:05:28;;;;;;;14.23;6.28;;;;;;;;;;5002126;28;20416;-74
2023/08/20 11:07:54;;;;;;;8.80;5.07;;;;;;;;;;5007120;28;20034;-74
2023/08/20 11:10:19;;;;;;;9.47;5.27;;;;;;;;;;5002425;28;20737;-74
2023/08/20 11:12:47;;;;;;;11.38;6.28;;;;;;;;;;5001521;28;20021;-73
2023/08/20 11:15:13;;;;;;;10.55;6.13;;;;;;;;;;5005504;28;20105;-74
2023/08/20 11:17:42;;;;;;;9.20;6.57;;;;;;;;;;5005015;28;20102;-74
2023/08/20 11:20:08;;;;;;;10.73;6.00;;;;;;;;;;5005018;28;20037;-74
2023/08/20 11:22:33;;;;;;;9.50;6.82;;;;;;;;;;5010146;28;20022;-74
2023/08/20 11:24:59;;;;;;;11.33;7.60;;;;;;;;;;5010401;28;20026;-73
2023/08/20 11:27:26;;;;;;;13.13;7.63;;;;;;;;;;5004651;28;20308;-74
2023/08/20 11:29:53;;;;;;;9.68;6.45;;;;;;;;;;5004473;28;20018;-74
2023/08/20 11:32:19;;;;;;;11.48;6.18;;;;;;;;;;5000861;28;20483;-74
2023/08/20 11:34:44;;;;;;;8.57;5.90;;;;;;;;;;5009935;28;20045;-74
2023/08/20 11:37:09;;;;;;;11.83;7.60;;;;;;;;;;5006269;28;20022;-74
2023/08/20 11:39:36;;;;;;;11.40;6.75;;;;;;;;;;5005711;28;20024;-74
2023/08/20 11:42:01;;;;;;;10.50;7.53;;;;;;;;;;5004801;28;20376;-74
2023/08/20 11:44:27;;;;;;;9.93;6.97;;;;;;;;;;5010165;28;20020;-74
2023/08/20 11:46:52;;;;;;;9.48;6.43;;;;;;;;;;5004659;28;20128;-74
2023/08/20 11:49:26;;;;;;;12.23;6.93;;;;;;;;;;5002868;28;20101;-74
2023/08/20 11:51:51;;;;;;;8.52;6.00;;;;;;;;;;5013528;28;20080;-74
2023/08/20 11:54:17;;;;;;;16.37;7.47;;;;;;;;;;5010175;28;20025;-74
2023/08/20 11:56:46;;;;;;;14.85;8.07;;;;;;;;;;5008659;28;20056;-74
2023/08/20 11:59:12;;;;;;;17.25;6.53;;;;;;;;;;5009198;28;20010;-74
2023/08/20 12:01:37;;;;;;;15.25;7.20;;;;;;;;;;5011916;28;20842;-74
2023/08/20 12:04:03;;;;;;;13.10;6.57;;;;;;;;;;5013131;28;20017;-74
2023/08/20 12:06:30;;;;;;;8.15;5.85;;;;;;;;;;5009435;28;20113;-74
2023/08/20 12:08:55;;;;;;;9.98;6.47;;;;;;;;;;5012018;28;20478;-74
2023/08/20 12:11:23;;;;;;;11.93;7.40;;;;;;;;;;5013643;28;20049;-74
2023/08/20 12:13:48;;;;;;;9.25;6.72;;;;;;;;;;5012729;28;20029;-74
2023/08/20 12:16:14;;;;;;;12.53;7.13;;;;;;;;;;5011323;28;20026;-74
2023/08/20 12:18:39;;;;;;;9.33;6.97;;;;;;;;;;5008917;28;20121;-74
2023/08/20 12:21:04;;;;;;;10.17;6.40;;;;;;;;;;5010296;28;20030;-74
2023/08/20 12:23:29;;;;;;;7.53;6.23;;;;;;;;;;5010898;28;20285;-74
2023/08/20 12:25:54;;;;;;;10.27;6.40;;;;;;;;;;5012335;28;20029;-75
2023/08/20 12:28:19;;;;;;;8.73;6.10;;;;;;;;;;5013110;28;20265;-74
2023/08/20 12:30:46;;;;;;;8.07;6.03;;;;;;;;;;5011639;28;20018;-74
2023/08/20 12:33:11;;;;;;;10.88;6.65;;;;;;;;;;5004947;28;20045;-74
2023/08/20 12:35:36;;;;;;;10.17;7.40;;;;;;;;;;5007648;28;20022;-74
2023/08/20 12:38:01;;;;;;;11.82;6.78;;;;;;;;;;5003148;28;20288;-74
2023/08/20 12:40:27;;;;;;;9.57;5.77;;;;;;;;;;4998067;28;20605;-74
2023/08/20 12:42:52;;;;;;;10.60;5.88;;;;;;;;;;5003516;28;20050;-74
2023/08/20 12:45:17;;;;;;;9.73;6.03;;;;;;;;;;5012580;28;20022;-74
2023/08/20 12:47:43;;;;;;;11.00;5.97;;;;;;;;;;5006836;28;20034;-75
2023/08/20 12:50:08;;;;;;;6.97;5.50;;;;;;;;;;5009112;28;21049;-74
2023/08/20 12:52:33;;;;;;;16.33;6.65;;;;;;;;;;5008582;28;20533;-74
2023/08/20 12:54:59;;;;;;;9.77;6.37;;;;;;;;;;5011148;28;20033;-75
2023/08/20 12:57:24;;;;;;;9.27;6.77;;;;;;;;;;5010909;28;20030;-74
2023/08/20 12:59:49;;;;;;;11.53;6.30;;;;;;;;;;5007342;28;20022;-75
2023/08/20 13:02:15;;;;;;;10.80;6.60;;;;;;;;;;5009908;28;20040;-75
2023/08/20 13:04:40;;;;;;;10.70;5.95;;;;;;;;;;5007398;28;20272;-75
2023/08/20 13:07:06;;;;;;;10.30;6.40;;;;;;;;;;5005317;28;20104;-74
2023/08/20 13:09:31;;;;;;;7.60;6.07;;;;;;;;;;5007028;28;20027;-75
2023/08/20 13:11:57;;;;;;;9.55;5.65;;;;;;;;;;5011283;28;20292;-75
2023/08/20 13:14:22;;;;;;;11.70;6.22;;;;;;;;;;5011534;28;20018;-75
2023/08/20 13:16:47;;;;;;;9.32;5.57;;;;;;;;;;5009266;28;20037;-75
2023/08/20 13:19:12;;;;;;;8.82;6.55;;;;;;;;;;4999224;28;20017;-75
2023/08/20 13:21:38;;;;;;;9.70;5.35;;;;;;;;;;5002939;28;20018;-75
2023/08/20 13:24:03;;;;;;;7.03;5.37;;;;;;;;;;5011275;28;20025;-75
2023/08/20 13:26:28;;;;;;;13.05;5.22;;;;;;;;;;5005176;28;20029;-75
2023/08/20 13:28:53;;;;;;;8.77;5.13;;;;;;;;;;5005858;28;20049;-75
2023/08/20 13:31:19;;;;;;;5.63;4.33;;;;;;;;;;5011769;28;20018;-76
2023/08/20 13:33:44;;;;;;;12.00;4.80;;;;;;;;;;5010724;28;20026;-75
2023/08/20 13:36:09;;;;;;;7.10;4.77;;;;;;;;;;5007236;28;20022;-75
2023/08/20 13:38:34;;;;;;;7.10;4.67;;;;;;;;;;5007994;28;20071;-75
2023/08/20 13:40:59;;;;;;;8.00;4.53;;;;;;;;;;5008170;28;20026;-75
2023/08/20 13:43:24;;;;;;;6.10;4.87;;;;;;;;;;5003562;28;20021;-75
2023/08/20 13:45:50;;;;;;;11.00;5.07;;;;;;;;;;4999231;28;20112;-75
2023/08/20 13:48:15;;;;;;;6.40;4.07;;;;;;;;;;5008365;28;20025;-75
2023/08/20 13:50:40;;;;;;;10.13;4.60;;;;;;;;;;5010682;28;20014;-75
2023/08/20 13:53:05;;;;;;;11.50;4.73;;;;;;;;;;5003880;28;20033;-75
2023/08/20 13:55:31;;;;;;;6.78;4.45;;;;;;;;;;5007076;28;20109;-75
2023/08/20 13:57:56;;;;;;;7.55;4.57;;;;;;;;;;5000093;28;20026;-74
2023/08/20 14:00:21;;;;;;;6.50;4.33;;;;;;;;;;5006890;28;20072;-74
2023/08/20 14:02:46;;;;;;;6.67;4.67;;;;;;;;;;5001799;28;20566;-75
2023/08/20 14:05:12;;;;;;;9.60;4.37;;;;;;;;;;5010110;28;20268;-75
2023/08/20 14:07:38;;;;;;;11.88;4.47;;;;;;;;;;5003067;28;20161;-75
2023/08/20 14:10:06;;;;;;;8.38;4.75;;;;;;;;;;5005632;28;20050;-74
2023/08/20 14:12:31;;;;;;;7.57;4.97;;;;;;;;;;5007741;28;20024;-74
2023/08/20 14:14:56;;;;;;;9.27;5.00;;;;;;;;;;5005728;28;20026;-75
2023/08/20 14:17:22;;;;;;;7.57;4.53;;;;;;;;;;5010519;28;20502;-75
2023/08/20 14:19:47;;;;;;;8.53;4.40;;;;;;;;;;5010317;28;20721;-75
2023/08/20 14:22:12;;;;;;;6.67;4.30;;;;;;;;;;5001064;28;20061;-76
2023/08/20 14:24:37;;;;;;;5.83;4.23;;;;;;;;;;5006554;28;20026;-76